Time;durP1;ratioP1;P1;durP2;ratioP2;P2;SDS_P1;SDS_P2;PMS_P1;PMS_P2;Temp;Humidity;BMP_temperature;BMP_pressure;BME280_temperature;BME280_humidity;BME280_pressure;Samples;Min_cycle;Max_cycle;Signal;HPM_P1;HPM_P2
2023/03/21 00:00:24;;;;;;;12.30;8.13;;;;;;;;;;5063671;28;20726;-52
2023/03/21 00:02:51;;;;;;;7.77;7.17;;;;;;;;;;5059824;28;20247;-51
2023/03/21 00:05:19;;;;;;;9.07;8.27;;;;;;;;;;5063846;28;20235;-53
2023/03/21 00:07:47;;;;;;;9.50;8.80;;;;;;;;;;5051379;28;20722;-52
2023/03/21 00:10:13;;;;;;;8.10;7.30;;;;;;;;;;5060766;28;20235;-52
2023/03/21 00:12:41;;;;;;;9.67;8.67;;;;;;;;;;5061919;28;20287;-51
2023/03/21 00:15:08;;;;;;;9.90;8.90;;;;;;;;;;5059010;28;21212;-52
2023/03/21 00:17:35;;;;;;;11.30;9.93;;;;;;;;;;5063284;28;20713;-52
2023/03/21 00:20:03;;;;;;;10.20;9.13;;;;;;;;;;5057711;28;20316;-52
2023/03/21 00:22:30;;;;;;;10.77;9.43;;;;;;;;;;5062827;28;20267;-51
2023/03/21 00:24:57;;;;;;;11.03;9.93;;;;;;;;;;5059698;28;20338;-52
2023/03/21 00:27:24;;;;;;;10.83;9.57;;;;;;;;;;5061726;28;20235;-52
2023/03/21 00:29:50;;;;;;;12.50;10.77;;;;;;;;;;5060211;28;20245;-52
2023/03/21 00:32:17;;;;;;;10.60;9.50;;;;;;;;;;5063786;28;20253;-51
2023/03/21 00:34:43;;;;;;;11.47;10.27;;;;;;;;;;5061381;28;20732;-51
2023/03/21 00:37:10;;;;;;;10.43;9.40;;;;;;;;;;5061186;28;20803;-51
2023/03/21 00:39:37;;;;;;;13.57;10.27;;;;;;;;;;5060835;28;20259;-52
2023/03/21 00:42:05;;;;;;;15.60;10.53;;;;;;;;;;5060237;28;20234;-52
2023/03/21 00:44:35;;;;;;;11.53;10.33;;;;;;;;;;5060112;28;20703;-51
2023/03/21 00:47:02;;;;;;;10.20;9.30;;;;;;;;;;5053371;28;20235;-51
2023/03/21 00:49:32;;;;;;;13.27;11.40;;;;;;;;;;5057952;28;20884;-52
2023/03/21 00:51:59;;;;;;;12.00;10.80;;;;;;;;;;5059343;28;20243;-51
2023/03/21 00:54:25;;;;;;;13.13;10.00;;;;;;;;;;5065864;28;20239;-52
2023/03/21 00:56:52;;;;;;;11.10;10.00;;;;;;;;;;5070218;28;20244;-53
2023/03/21 00:59:19;;;;;;;13.57;10.93;;;;;;;;;;5073245;28;20242;-53
2023/03/21 01:01:46;;;;;;;15.93;11.30;;;;;;;;;;5070084;28;20325;-53
2023/03/21 01:04:15;;;;;;;12.63;11.43;;;;;;;;;;5057529;28;20697;-52
2023/03/21 01:06:42;;;;;;;13.57;11.10;;;;;;;;;;5061500;28;20231;-51
2023/03/21 01:09:11;;;;;;;11.33;10.33;;;;;;;;;;5061758;28;20693;-52
2023/03/21 01:11:38;;;;;;;12.77;11.03;;;;;;;;;;5060340;28;20235;-52
2023/03/21 01:14:04;;;;;;;14.10;11.07;;;;;;;;;;5060796;28;21017;-51
2023/03/21 01:16:32;;;;;;;14.83;12.93;;;;;;;;;;5058772;28;20261;-51
2023/03/21 01:18:58;;;;;;;20.37;12.80;;;;;;;;;;5060713;28;20231;-51
2023/03/21 01:21:25;;;;;;;13.40;12.00;;;;;;;;;;5062277;28;20228;-52
2023/03/21 01:23:51;;;;;;;18.87;13.43;;;;;;;;;;5061424;28;20239;-52
2023/03/21 01:26:17;;;;;;;13.63;12.33;;;;;;;;;;5061581;28;20231;-52
2023/03/21 01:28:44;;;;;;;14.23;12.80;;;;;;;;;;5062268;28;20231;-53
2023/03/21 01:31:11;;;;;;;14.87;13.07;;;;;;;;;;5060723;28;20665;-52
2023/03/21 01:33:40;;;;;;;17.07;14.87;;;;;;;;;;5060775;28;20235;-52
2023/03/21 01:36:06;;;;;;;17.43;15.63;;;;;;;;;;5058999;28;20319;-51
2023/03/21 01:38:33;;;;;;;17.70;15.93;;;;;;;;;;5058838;28;20779;-52
2023/03/21 01:41:00;;;;;;;15.93;14.33;;;;;;;;;;5062104;28;20239;-52
2023/03/21 01:43:28;;;;;;;18.60;16.60;;;;;;;;;;5059761;28;20639;-51
2023/03/21 01:46:20;;;;;;;19.57;17.33;;;;;;;;;;5061445;28;20254;-52
2023/03/21 01:48:49;;;;;;;21.10;17.43;;;;;;;;;;5060380;28;20678;-52
2023/03/21 01:51:15;;;;;;;18.73;16.77;;;;;;;;;;5058447;28;20719;-52
2023/03/21 01:53:42;;;;;;;20.00;17.93;;;;;;;;;;5053442;28;20276;-51
2023/03/21 01:56:11;;;;;;;19.63;17.53;;;;;;;;;;5059468;28;20234;-51
2023/03/21 01:58:38;;;;;;;21.87;19.77;;;;;;;;;;5058971;28;20238;-51
2023/03/21 02:01:05;;;;;;;20.60;18.50;;;;;;;;;;5060485;28;20729;-52
2023/03/21 02:03:36;;;;;;;20.73;18.53;;;;;;;;;;5062984;28;20231;-53
2023/03/21 02:06:06;;;;;;;19.57;17.60;;;;;;;;;;5058113;28;20250;-52
2023/03/21 02:08:33;;;;;;;24.70;19.73;;;;;;;;;;5060132;28;20227;-53
2023/03/21 02:10:59;;;;;;;20.97;18.13;;;;;;;;;;5061643;28;20259;-52
2023/03/21 02:13:26;;;;;;;22.70;18.50;;;;;;;;;;5058671;28;20243;-52
2023/03/21 02:15:56;;;;;;;22.77;19.97;;;;;;;;;;5064091;28;20245;-52
2023/03/21 02:18:27;;;;;;;22.50;19.70;;;;;;;;;;5065941;28;20242;-52
2023/03/21 02:21:14;;;;;;;24.90;20.07;;;;;;;;;;5062258;28;20284;-51
2023/03/21 02:23:55;;;;;;;22.47;19.80;;;;;;;;;;5036586;28;20589;-51
2023/03/21 02:26:41;;;;;;;22.20;19.83;;;;;;;;;;5029258;28;20227;-52
2023/03/21 02:29:13;;;;;;;25.30;21.33;;;;;;;;;;5059133;28;20234;-52
2023/03/21 02:31:42;;;;;;;26.80;20.90;;;;;;;;;;5063786;28;20243;-52
2023/03/21 02:34:19;;;;;;;21.77;19.57;;;;;;;;;;5057452;28;20245;-52
2023/03/21 02:36:53;;;;;;;23.27;20.87;;;;;;;;;;5057906;28;20314;-50
2023/03/21 02:39:24;;;;;;;23.20;20.20;;;;;;;;;;5061534;28;20306;-52
2023/03/21 02:41:53;;;;;;;21.87;19.43;;;;;;;;;;5061823;28;20231;-53
2023/03/21 02:44:22;;;;;;;23.63;20.67;;;;;;;;;;5062651;28;20233;-53
2023/03/21 02:46:51;;;;;;;26.57;20.70;;;;;;;;;;5060091;28;20327;-53
2023/03/21 02:49:22;;;;;;;25.97;21.57;;;;;;;;;;5061675;28;20231;-51
2023/03/21 02:51:49;;;;;;;24.40;20.67;;;;;;;;;;5063978;28;20681;-52
2023/03/21 02:54:18;;;;;;;24.87;21.60;;;;;;;;;;5058497;28;20227;-51
2023/03/21 02:56:45;;;;;;;23.40;20.67;;;;;;;;;;5062907;28;20725;-53
2023/03/21 02:59:12;;;;;;;21.07;18.80;;;;;;;;;;5056500;28;20242;-52
2023/03/21 03:01:39;;;;;;;22.50;19.90;;;;;;;;;;5062285;28;20246;-52
2023/03/21 03:04:16;;;;;;;24.97;22.17;;;;;;;;;;5059966;28;20242;-52
2023/03/21 03:06:49;;;;;;;27.87;21.13;;;;;;;;;;5058708;28;20230;-52
2023/03/21 03:09:24;;;;;;;28.70;23.73;;;;;;;;;;5066702;28;20227;-52
2023/03/21 03:11:56;;;;;;;25.20;21.17;;;;;;;;;;5069536;28;20803;-57
2023/03/21 03:14:31;;;;;;;24.10;21.50;;;;;;;;;;5070615;28;20238;-53
2023/03/21 03:17:03;;;;;;;25.90;20.97;;;;;;;;;;5066861;28;20719;-52
2023/03/21 03:19:31;;;;;;;24.03;20.73;;;;;;;;;;5062509;28;20303;-51
2023/03/21 03:22:01;;;;;;;26.23;21.67;;;;;;;;;;5058249;28;20702;-51
2023/03/21 03:24:31;;;;;;;23.00;20.40;;;;;;;;;;5062373;28;20242;-52
2023/03/21 03:26:59;;;;;;;25.67;21.20;;;;;;;;;;5058946;28;20234;-51
2023/03/21 03:29:27;;;;;;;26.97;22.57;;;;;;;;;;5059100;28;20280;-51
2023/03/21 03:31:56;;;;;;;20.77;18.33;;;;;;;;;;5052998;28;20354;-53
2023/03/21 03:34:25;;;;;;;22.27;19.53;;;;;;;;;;5052792;28;20239;-51
2023/03/21 03:36:55;;;;;;;28.03;22.97;;;;;;;;;;5062082;28;20231;-54
2023/03/21 03:39:22;;;;;;;26.87;22.10;;;;;;;;;;5060667;28;20246;-52
2023/03/21 03:41:52;;;;;;;23.17;20.30;;;;;;;;;;5059359;28;20326;-52
2023/03/21 03:44:19;;;;;;;28.03;20.47;;;;;;;;;;5060345;28;20442;-52
2023/03/21 03:46:47;;;;;;;26.73;21.17;;;;;;;;;;5049840;28;20237;-51
2023/03/21 03:49:15;;;;;;;26.80;20.50;;;;;;;;;;5049120;28;20656;-51
2023/03/21 03:51:43;;;;;;;26.07;21.07;;;;;;;;;;5060637;28;20227;-51
2023/03/21 03:54:12;;;;;;;22.10;19.60;;;;;;;;;;5064383;28;25954;-52
2023/03/21 03:56:39;;;;;;;25.93;18.80;;;;;;;;;;5062893;28;20310;-51
2023/03/21 03:59:07;;;;;;;27.13;22.27;;;;;;;;;;5059143;28;20231;-52
2023/03/21 04:01:34;;;;;;;22.80;20.33;;;;;;;;;;5063023;28;20239;-53
2023/03/21 04:04:01;;;;;;;25.90;20.97;;;;;;;;;;5055211;28;20281;-50
2023/03/21 04:06:27;;;;;;;22.77;20.03;;;;;;;;;;5060757;28;20231;-52
2023/03/21 04:08:55;;;;;;;24.80;21.47;;;;;;;;;;5061947;28;20326;-52
2023/03/21 04:11:22;;;;;;;29.23;21.03;;;;;;;;;;5060225;28;20235;-51
2023/03/21 04:13:48;;;;;;;28.17;21.17;;;;;;;;;;5060541;28;20296;-53
2023/03/21 04:16:18;;;;;;;24.77;21.20;;;;;;;;;;5059395;28;20312;-51
2023/03/21 04:18:45;;;;;;;28.83;20.70;;;;;;;;;;5055889;28;20240;-53
2023/03/21 04:21:12;;;;;;;21.30;19.07;;;;;;;;;;5065463;28;20641;-51
2023/03/21 04:23:39;;;;;;;26.23;19.27;;;;;;;;;;5059002;28;20288;-52
2023/03/21 04:26:06;;;;;;;23.70;19.23;;;;;;;;;;5058140;28;20354;-51
2023/03/21 04:28:35;;;;;;;20.70;18.53;;;;;;;;;;5062406;28;20315;-51
2023/03/21 04:31:02;;;;;;;23.57;19.80;;;;;;;;;;5064608;28;20234;-51
2023/03/21 04:33:30;;;;;;;27.50;19.37;;;;;;;;;;5061500;28;20609;-52
2023/03/21 04:35:57;;;;;;;25.00;20.97;;;;;;;;;;5065446;28;20243;-54
2023/03/21 04:38:25;;;;;;;27.67;19.87;;;;;;;;;;5059859;28;20244;-52
2023/03/21 04:40:52;;;;;;;22.13;18.40;;;;;;;;;;5054633;28;20315;-52
2023/03/21 04:43:18;;;;;;;23.10;18.40;;;;;;;;;;5060099;28;21062;-52
2023/03/21 04:45:45;;;;;;;27.97;19.87;;;;;;;;;;5058709;28;20752;-51
2023/03/21 04:48:13;;;;;;;19.97;17.77;;;;;;;;;;5062451;28;20265;-52
2023/03/21 04:50:43;;;;;;;18.80;16.57;;;;;;;;;;5057586;28;20627;-52
2023/03/21 04:53:10;;;;;;;23.47;18.73;;;;;;;;;;5061382;28;20239;-51
2023/03/21 04:55:36;;;;;;;23.43;19.63;;;;;;;;;;5048151;28;20231;-54
2023/03/21 04:58:03;;;;;;;25.90;19.43;;;;;;;;;;5062153;28;20840;-53
2023/03/21 05:00:30;;;;;;;23.73;21.13;;;;;;;;;;5056024;28;20235;-53
2023/03/21 05:02:58;;;;;;;25.70;20.70;;;;;;;;;;5050161;28;20262;-53
2023/03/21 05:05:25;;;;;;;25.07;19.00;;;;;;;;;;5061860;28;20249;-52
2023/03/21 05:07:53;;;;;;;23.77;18.50;;;;;;;;;;5057988;28;20240;-55
2023/03/21 05:10:20;;;;;;;26.07;18.63;;;;;;;;;;5063622;28;20317;-52
2023/03/21 05:12:46;;;;;;;28.40;19.73;;;;;;;;;;5061912;28;20346;-52
2023/03/21 05:15:13;;;;;;;23.47;18.37;;;;;;;;;;5058175;28;20230;-52
2023/03/21 05:17:41;;;;;;;28.23;20.23;;;;;;;;;;5059992;28;20713;-52
2023/03/21 05:20:10;;;;;;;31.63;20.40;;;;;;;;;;5060571;28;20591;-51
2023/03/21 05:22:39;;;;;;;24.90;19.13;;;;;;;;;;5055571;28;20242;-54
2023/03/21 05:25:08;;;;;;;27.13;19.60;;;;;;;;;;5057106;28;20227;-52
2023/03/21 05:27:35;;;;;;;27.13;19.67;;;;;;;;;;5062300;28;20239;-52
2023/03/21 05:30:02;;;;;;;24.87;19.97;;;;;;;;;;5059989;28;20231;-56
2023/03/21 05:32:29;;;;;;;25.70;19.53;;;;;;;;;;5063402;28;20265;-52
2023/03/21 05:34:55;;;;;;;25.03;20.23;;;;;;;;;;5060276;28;20235;-53
2023/03/21 05:37:22;;;;;;;24.20;20.30;;;;;;;;;;5061385;28;20262;-54
2023/03/21 05:39:49;;;;;;;27.67;20.43;;;;;;;;;;5064852;28;20240;-52
2023/03/21 05:42:18;;;;;;;24.17;19.03;;;;;;;;;;5067398;28;20998;-53
2023/03/21 05:44:45;;;;;;;21.83;18.03;;;;;;;;;;5063797;28;20231;-53
2023/03/21 05:47:11;;;;;;;22.07;18.17;;;;;;;;;;5066905;28;20753;-52
2023/03/21 05:49:38;;;;;;;27.87;21.70;;;;;;;;;;5063355;28;20231;-52
2023/03/21 05:52:05;;;;;;;23.63;19.60;;;;;;;;;;5064298;28;20255;-51
2023/03/21 05:54:32;;;;;;;26.47;20.80;;;;;;;;;;5053579;28;20240;-51
2023/03/21 05:56:58;;;;;;;27.13;21.80;;;;;;;;;;5064329;28;20916;-52
2023/03/21 05:59:26;;;;;;;27.77;21.47;;;;;;;;;;5066863;28;20235;-53
2023/03/21 06:01:53;;;;;;;25.53;20.80;;;;;;;;;;5063825;28;20245;-51
2023/03/21 06:04:19;;;;;;;26.13;20.03;;;;;;;;;;5066851;28;20887;-52
2023/03/21 06:06:45;;;;;;;30.63;20.77;;;;;;;;;;5061047;28;20244;-51
2023/03/21 06:09:13;;;;;;;28.83;22.07;;;;;;;;;;5055193;28;20266;-51
2023/03/21 06:11:43;;;;;;;28.20;21.33;;;;;;;;;;5063133;28;20227;-52
2023/03/21 06:14:09;;;;;;;30.47;21.43;;;;;;;;;;5059559;28;20322;-51
2023/03/21 06:16:37;;;;;;;29.07;22.40;;;;;;;;;;5058499;28;20241;-52
2023/03/21 06:19:04;;;;;;;31.07;21.90;;;;;;;;;;5066493;28;20288;-53
2023/03/21 06:21:30;;;;;;;36.07;21.83;;;;;;;;;;5067805;28;20231;-51
2023/03/21 06:23:57;;;;;;;30.10;21.77;;;;;;;;;;5057148;28;20702;-52
2023/03/21 06:26:23;;;;;;;29.00;24.17;;;;;;;;;;5057051;28;20862;-52
2023/03/21 06:28:50;;;;;;;30.53;23.13;;;;;;;;;;5057570;28;20307;-53
2023/03/21 06:31:17;;;;;;;32.33;22.87;;;;;;;;;;5066078;28;20314;-51
2023/03/21 06:33:45;;;;;;;35.87;24.17;;;;;;;;;;5069413;28;20713;-52
2023/03/21 06:36:11;;;;;;;27.23;21.60;;;;;;;;;;5050527;28;20236;-52
2023/03/21 06:38:38;;;;;;;30.60;22.10;;;;;;;;;;5057579;28;20281;-52
2023/03/21 06:41:05;;;;;;;28.43;21.17;;;;;;;;;;5063860;28;20231;-52
2023/03/21 06:43:32;;;;;;;26.03;20.67;;;;;;;;;;5065178;28;20322;-51
2023/03/21 06:45:58;;;;;;;29.63;22.53;;;;;;;;;;5065645;28;20258;-52
2023/03/21 06:48:25;;;;;;;27.67;21.00;;;;;;;;;;5056590;28;20267;-57
2023/03/21 06:50:54;;;;;;;31.30;22.80;;;;;;;;;;5065125;28;20841;-52
2023/03/21 06:53:23;;;;;;;25.53;19.80;;;;;;;;;;5058645;28;20277;-53
2023/03/21 06:55:50;;;;;;;29.10;23.27;;;;;;;;;;5068276;28;20261;-52
2023/03/21 06:58:16;;;;;;;27.93;22.00;;;;;;;;;;5066650;28;20314;-52
2023/03/21 07:00:46;;;;;;;33.93;22.90;;;;;;;;;;5063983;28;20305;-51
2023/03/21 07:03:13;;;;;;;31.63;22.80;;;;;;;;;;5066012;28;20243;-51
2023/03/21 07:05:39;;;;;;;30.77;23.03;;;;;;;;;;5065841;28;20234;-52
2023/03/21 07:08:09;;;;;;;33.30;23.53;;;;;;;;;;5062398;28;20238;-53
2023/03/21 07:10:38;;;;;;;34.60;23.20;;;;;;;;;;5064064;28;20273;-56
2023/03/21 07:13:05;;;;;;;30.00;23.07;;;;;;;;;;5062335;28;20246;-52
2023/03/21 07:15:32;;;;;;;34.30;24.17;;;;;;;;;;5063638;28;20297;-52
2023/03/21 07:17:58;;;;;;;34.03;22.50;;;;;;;;;;5065092;28;20242;-53
2023/03/21 07:20:26;;;;;;;33.97;23.70;;;;;;;;;;5065578;28;20235;-53
2023/03/21 07:22:52;;;;;;;34.07;24.50;;;;;;;;;;5068132;28;20319;-51
2023/03/21 07:25:20;;;;;;;33.47;24.87;;;;;;;;;;5066194;28;20231;-52
2023/03/21 07:27:47;;;;;;;33.40;23.57;;;;;;;;;;5064527;28;20759;-52
2023/03/21 07:30:15;;;;;;;36.23;24.97;;;;;;;;;;5056366;28;20231;-51
2023/03/21 07:32:42;;;;;;;34.63;24.30;;;;;;;;;;5065472;28;20669;-53
2023/03/21 07:35:10;;;;;;;37.10;24.37;;;;;;;;;;5061347;28;20305;-51
2023/03/21 07:37:37;;;;;;;34.17;24.80;;;;;;;;;;5062758;28;20234;-52
2023/03/21 07:40:08;;;;;;;39.57;26.63;;;;;;;;;;5060901;28;20231;-52
2023/03/21 07:42:36;;;;;;;31.87;25.83;;;;;;;;;;5066545;28;20440;-51
2023/03/21 07:45:03;;;;;;;32.47;24.90;;;;;;;;;;5063851;28;20224;-50
2023/03/21 07:47:30;;;;;;;33.03;24.07;;;;;;;;;;5068721;28;20709;-52
2023/03/21 07:49:57;;;;;;;32.17;24.13;;;;;;;;;;5066837;28;20242;-52
2023/03/21 07:52:24;;;;;;;32.43;25.00;;;;;;;;;;5061038;28;20235;-54
2023/03/21 07:54:50;;;;;;;31.10;22.97;;;;;;;;;;5065254;28;20231;-52
2023/03/21 07:57:17;;;;;;;29.33;22.27;;;;;;;;;;5064148;28;20235;-53
2023/03/21 07:59:45;;;;;;;34.53;25.77;;;;;;;;;;5060644;28;20240;-53
2023/03/21 08:02:13;;;;;;;35.07;23.57;;;;;;;;;;5064167;28;20231;-52
2023/03/21 08:04:40;;;;;;;31.80;24.30;;;;;;;;;;5065235;28;20229;-53
2023/03/21 08:07:07;;;;;;;34.10;25.37;;;;;;;;;;5066214;28;20247;-52
2023/03/21 08:09:33;;;;;;;31.20;23.07;;;;;;;;;;5063684;28;20228;-52
2023/03/21 08:12:00;;;;;;;29.27;22.37;;;;;;;;;;5062008;28;20584;-52
2023/03/21 08:14:27;;;;;;;30.83;22.03;;;;;;;;;;5066458;28;20277;-55
2023/03/21 08:16:55;;;;;;;33.33;23.20;;;;;;;;;;5064539;28;20239;-57
2023/03/21 08:19:21;;;;;;;33.80;22.83;;;;;;;;;;5058333;28;20243;-51
2023/03/21 08:21:48;;;;;;;31.33;21.67;;;;;;;;;;5062026;28;20270;-52
2023/03/21 08:24:15;;;;;;;29.83;21.47;;;;;;;;;;5049700;28;20235;-53
2023/03/21 08:26:42;;;;;;;28.87;22.40;;;;;;;;;;5067490;28;20289;-52
2023/03/21 08:29:09;;;;;;;34.10;22.17;;;;;;;;;;5061027;28;20873;-56
2023/03/21 08:31:36;;;;;;;29.60;21.97;;;;;;;;;;5064129;28;20236;-52
2023/03/21 08:34:04;;;;;;;29.97;21.13;;;;;;;;;;5063675;28;20231;-52
2023/03/21 08:36:31;;;;;;;39.07;23.43;;;;;;;;;;5065380;28;20227;-52
2023/03/21 08:39:04;;;;;;;29.10;21.03;;;;;;;;;;5066016;28;20239;-51
2023/03/21 08:41:30;;;;;;;40.40;31.00;;;;;;;;;;5069777;28;20235;-54
2023/03/21 08:43:57;;;;;;;32.37;22.13;;;;;;;;;;5060122;28;20242;-52
2023/03/21 08:46:24;;;;;;;32.13;22.00;;;;;;;;;;5064787;28;20233;-55
2023/03/21 08:48:50;;;;;;;25.33;20.13;;;;;;;;;;5070516;28;20318;-52
2023/03/21 08:51:18;;;;;;;31.27;22.97;;;;;;;;;;5065708;28;20268;-53
2023/03/21 08:53:44;;;;;;;27.43;20.83;;;;;;;;;;5059895;28;20277;-53
2023/03/21 08:56:11;;;;;;;25.60;20.33;;;;;;;;;;5064296;28;20231;-60
2023/03/21 08:58:38;;;;;;;28.43;20.00;;;;;;;;;;5067997;28;20904;-52
2023/03/21 09:01:05;;;;;;;26.83;21.73;;;;;;;;;;5065723;28;20242;-58
2023/03/21 09:03:32;;;;;;;26.40;19.87;;;;;;;;;;5063315;28;20241;-52
2023/03/21 09:05:59;;;;;;;33.33;21.57;;;;;;;;;;5066898;28;20764;-52
2023/03/21 09:08:27;;;;;;;27.27;20.33;;;;;;;;;;5063559;28;20227;-52
2023/03/21 09:10:54;;;;;;;27.73;18.83;;;;;;;;;;5066734;28;20625;-53
2023/03/21 09:13:20;;;;;;;27.83;19.70;;;;;;;;;;5066455;28;20238;-57
2023/03/21 09:15:47;;;;;;;25.93;19.60;;;;;;;;;;5065577;28;20307;-51
2023/03/21 09:18:14;;;;;;;30.10;19.10;;;;;;;;;;5064872;28;20261;-53
2023/03/21 09:20:41;;;;;;;28.53;19.43;;;;;;;;;;5063964;28;20234;-52
2023/03/21 09:23:09;;;;;;;24.90;18.47;;;;;;;;;;5066174;28;20238;-53
2023/03/21 09:25:37;;;;;;;24.70;18.67;;;;;;;;;;5060643;28;20246;-54
2023/03/21 09:28:05;;;;;;;24.77;17.60;;;;;;;;;;5059979;28;20253;-52
2023/03/21 09:30:32;;;;;;;23.87;18.73;;;;;;;;;;5058154;28;20468;-51
2023/03/21 09:32:59;;;;;;;27.30;20.40;;;;;;;;;;5063192;28;20231;-52
2023/03/21 09:35:27;;;;;;;22.43;17.43;;;;;;;;;;5064417;28;20235;-52
2023/03/21 09:37:53;;;;;;;23.03;17.57;;;;;;;;;;5063065;28;20288;-53
2023/03/21 09:40:24;;;;;;;25.40;20.30;;;;;;;;;;5059117;28;20238;-52
2023/03/21 09:43:00;;;;;;;24.07;19.93;;;;;;;;;;5057613;28;20258;-52
2023/03/21 09:45:32;;;;;;;22.20;19.43;;;;;;;;;;5054843;28;20237;-52
2023/03/21 09:47:59;;;;;;;25.03;19.90;;;;;;;;;;5064956;28;20847;-52
2023/03/21 09:50:30;;;;;;;23.30;17.73;;;;;;;;;;5061484;28;20937;-51
2023/03/21 09:52:58;;;;;;;28.23;20.33;;;;;;;;;;5061230;28;20252;-52
2023/03/21 09:55:25;;;;;;;28.67;21.20;;;;;;;;;;5063609;28;20265;-52
2023/03/21 09:57:56;;;;;;;23.50;19.20;;;;;;;;;;5067026;28;20262;-51
2023/03/21 10:00:28;;;;;;;25.60;18.77;;;;;;;;;;5063376;28;20251;-52
2023/03/21 10:02:58;;;;;;;31.57;21.77;;;;;;;;;;5069153;28;20654;-52
2023/03/21 10:05:27;;;;;;;29.67;19.53;;;;;;;;;;5066622;28;20231;-51
2023/03/21 10:07:56;;;;;;;27.30;20.20;;;;;;;;;;5061792;28;20230;-51
2023/03/21 10:10:25;;;;;;;28.50;20.07;;;;;;;;;;5062094;28;20223;-53
2023/03/21 10:12:53;;;;;;;24.97;19.27;;;;;;;;;;5057916;28;20239;-52
2023/03/21 10:15:20;;;;;;;24.40;19.67;;;;;;;;;;5055113;28;20219;-51
2023/03/21 10:17:50;;;;;;;27.63;18.77;;;;;;;;;;5064158;28;20231;-52
2023/03/21 10:20:21;;;;;;;24.07;18.53;;;;;;;;;;5061264;28;20771;-51
2023/03/21 10:22:48;;;;;;;24.27;18.87;;;;;;;;;;5061427;28;20333;-52
2023/03/21 10:25:15;;;;;;;20.10;16.13;;;;;;;;;;5062956;28;20242;-52
2023/03/21 10:27:42;;;;;;;21.70;18.57;;;;;;;;;;5065375;28;20230;-52
2023/03/21 10:30:11;;;;;;;23.07;18.93;;;;;;;;;;5061323;28;20266;-51
2023/03/21 10:32:37;;;;;;;21.50;17.10;;;;;;;;;;5062118;28;20334;-51
2023/03/21 10:35:06;;;;;;;23.43;18.80;;;;;;;;;;5061172;28;20235;-51
2023/03/21 10:37:35;;;;;;;20.07;16.73;;;;;;;;;;5064966;28;20223;-52
2023/03/21 10:40:01;;;;;;;22.27;18.17;;;;;;;;;;5063356;28;20231;-52
2023/03/21 10:42:30;;;;;;;22.27;17.67;;;;;;;;;;5055346;28;20725;-52
2023/03/21 10:44:57;;;;;;;22.57;17.00;;;;;;;;;;5064311;28;20235;-53
2023/03/21 10:47:24;;;;;;;21.40;16.10;;;;;;;;;;5064135;28;20786;-57
2023/03/21 10:49:51;;;;;;;22.17;17.90;;;;;;;;;;5066919;28;20266;-52
2023/03/21 10:52:20;;;;;;;27.97;17.40;;;;;;;;;;5065613;28;20243;-52
2023/03/21 10:54:47;;;;;;;27.57;18.93;;;;;;;;;;5066776;28;20231;-53
2023/03/21 10:57:15;;;;;;;20.57;16.77;;;;;;;;;;5059765;28;20254;-53
2023/03/21 10:59:44;;;;;;;22.03;16.90;;;;;;;;;;5064156;28;20318;-53
2023/03/21 11:02:16;;;;;;;21.77;16.30;;;;;;;;;;5068795;28;20254;-52
2023/03/21 11:04:43;;;;;;;23.73;17.27;;;;;;;;;;5077935;28;20258;-59
2023/03/21 11:07:13;;;;;;;21.13;15.80;;;;;;;;;;5079339;28;20231;-59
2023/03/21 11:09:46;;;;;;;22.10;17.17;;;;;;;;;;5082099;28;20296;-52
2023/03/21 11:12:13;;;;;;;20.87;16.63;;;;;;;;;;5080213;28;20227;-53
2023/03/21 11:14:41;;;;;;;20.00;16.13;;;;;;;;;;5064121;28;20230;-52
2023/03/21 11:17:18;;;;;;;21.00;14.43;;;;;;;;;;5066914;28;20663;-53
2023/03/21 11:19:47;;;;;;;20.90;14.27;;;;;;;;;;5059355;28;20597;-52
2023/03/21 11:22:14;;;;;;;19.50;14.90;;;;;;;;;;5065455;28;20249;-51
2023/03/21 11:24:41;;;;;;;16.17;13.40;;;;;;;;;;5066254;28;20254;-54
2023/03/21 11:27:09;;;;;;;18.60;13.87;;;;;;;;;;5067877;28;20250;-52
2023/03/21 11:29:37;;;;;;;17.63;14.53;;;;;;;;;;5063938;28;20763;-51
2023/03/21 11:32:09;;;;;;;20.43;14.23;;;;;;;;;;5062938;28;20288;-53
2023/03/21 11:34:42;;;;;;;20.67;13.50;;;;;;;;;;5063720;28;20314;-52
2023/03/21 11:37:17;;;;;;;18.90;14.93;;;;;;;;;;5066049;28;20234;-52
2023/03/21 11:39:44;;;;;;;17.23;12.77;;;;;;;;;;5060332;28;20314;-54
2023/03/21 11:42:29;;;;;;;20.17;14.93;;;;;;;;;;5061926;28;20413;-53
2023/03/21 11:45:01;;;;;;;19.27;14.43;;;;;;;;;;5063306;28;20657;-52
2023/03/21 11:47:28;;;;;;;17.87;13.33;;;;;;;;;;5058967;28;20235;-53
2023/03/21 11:49:55;;;;;;;19.00;13.47;;;;;;;;;;5063373;28;20243;-53
2023/03/21 11:52:25;;;;;;;37.63;15.10;;;;;;;;;;5062113;28;20227;-52
2023/03/21 11:55:05;;;;;;;15.87;12.90;;;;;;;;;;5062077;28;20223;-52
2023/03/21 11:57:36;;;;;;;14.88;11.77;;;;;;;;;;5064956;28;20226;-53
2023/03/21 12:00:05;;;;;;;16.15;12.65;;;;;;;;;;5064163;28;20238;-52
2023/03/21 12:02:53;;;;;;;17.15;11.93;;;;;;;;;;5065533;28;20234;-52
2023/03/21 12:05:23;;;;;;;15.90;11.93;;;;;;;;;;5062749;28;20320;-51
2023/03/21 12:07:54;;;;;;;17.30;12.00;;;;;;;;;;5063791;28;20325;-52
2023/03/21 12:10:35;;;;;;;14.33;12.00;;;;;;;;;;5069776;28;20219;-52
2023/03/21 12:13:07;;;;;;;14.27;11.20;;;;;;;;;;5062859;28;20269;-53
2023/03/21 12:15:36;;;;;;;22.80;12.70;;;;;;;;;;5072462;28;20587;-61
2023/03/21 12:18:06;;;;;;;13.43;10.98;;;;;;;;;;5076072;28;20799;-51
2023/03/21 12:20:37;;;;;;;19.75;12.02;;;;;;;;;;5063384;28;20220;-53
2023/03/21 12:23:21;;;;;;;11.93;10.18;;;;;;;;;;5064230;28;20342;-52
2023/03/21 12:25:53;;;;;;;15.15;10.35;;;;;;;;;;5053105;28;20654;-52
2023/03/21 12:28:24;;;;;;;12.23;10.85;;;;;;;;;;5063753;28;20231;-52
2023/03/21 12:30:54;;;;;;;13.15;10.75;;;;;;;;;;5064593;28;20851;-51
2023/03/21 12:33:27;;;;;;;14.77;11.65;;;;;;;;;;5059637;28;20231;-52
2023/03/21 12:35:59;;;;;;;18.10;10.07;;;;;;;;;;5063244;28;20241;-52
2023/03/21 12:38:29;;;;;;;16.67;10.60;;;;;;;;;;5060802;28;20775;-52
2023/03/21 12:41:05;;;;;;;23.17;12.55;;;;;;;;;;5062474;28;20239;-52
2023/03/21 12:43:37;;;;;;;13.10;10.18;;;;;;;;;;5064490;28;20242;-53
2023/03/21 12:46:05;;;;;;;14.93;10.73;;;;;;;;;;5061500;28;20238;-52
2023/03/21 12:48:36;;;;;;;13.77;9.70;;;;;;;;;;5064736;28;20318;-52
2023/03/21 12:51:05;;;;;;;11.43;10.33;;;;;;;;;;5062772;28;20326;-53
2023/03/21 12:53:37;;;;;;;18.67;11.35;;;;;;;;;;5064646;28;20239;-51
2023/03/21 12:56:07;;;;;;;12.15;9.60;;;;;;;;;;5062112;28;20241;-53
2023/03/21 12:58:42;;;;;;;12.43;10.13;;;;;;;;;;5061773;28;20314;-53
2023/03/21 13:01:09;;;;;;;12.00;9.30;;;;;;;;;;5061956;28;20242;-55
2023/03/21 13:03:37;;;;;;;11.88;8.95;;;;;;;;;;5060260;28;20235;-53
2023/03/21 13:06:04;;;;;;;12.10;9.38;;;;;;;;;;5064942;28;20610;-53
2023/03/21 13:08:35;;;;;;;18.23;12.90;;;;;;;;;;5062924;28;20322;-52
2023/03/21 13:11:02;;;;;;;13.00;9.07;;;;;;;;;;5058540;28;20238;-53
2023/03/21 13:13:33;;;;;;;11.10;10.00;;;;;;;;;;5063513;28;20235;-54
2023/03/21 13:16:04;;;;;;;10.45;8.02;;;;;;;;;;5057389;28;20242;-51
2023/03/21 13:18:41;;;;;;;14.80;8.77;;;;;;;;;;5063683;28;20329;-52
2023/03/21 13:21:12;;;;;;;12.40;8.98;;;;;;;;;;5064006;28;20231;-52
2023/03/21 13:23:39;;;;;;;16.13;9.95;;;;;;;;;;5065418;28;20237;-52
2023/03/21 13:26:08;;;;;;;11.07;9.25;;;;;;;;;;5063990;28;20604;-51
2023/03/21 13:28:35;;;;;;;12.52;10.20;;;;;;;;;;5063949;28;20318;-52
2023/03/21 13:31:17;;;;;;;10.52;8.25;;;;;;;;;;5064364;28;20246;-52
2023/03/21 13:33:45;;;;;;;11.95;7.88;;;;;;;;;;5058081;28;20318;-55
2023/03/21 13:36:13;;;;;;;13.27;9.88;;;;;;;;;;5064764;28;20430;-54
2023/03/21 13:38:39;;;;;;;10.63;9.32;;;;;;;;;;5063967;28;20238;-52
2023/03/21 13:41:07;;;;;;;11.93;10.10;;;;;;;;;;5064318;28;20231;-52
2023/03/21 13:43:35;;;;;;;14.73;11.05;;;;;;;;;;5065338;28;20702;-52
2023/03/21 13:46:06;;;;;;;11.60;9.40;;;;;;;;;;5065983;28;20309;-53
2023/03/21 13:48:41;;;;;;;11.07;9.33;;;;;;;;;;5074224;28;20332;-63
2023/03/21 13:51:07;;;;;;;10.57;9.50;;;;;;;;;;5079253;28;20227;-52
2023/03/21 13:53:36;;;;;;;10.70;9.57;;;;;;;;;;5076877;28;20235;-54
2023/03/21 13:56:24;;;;;;;11.67;10.07;;;;;;;;;;5078858;28;20261;-52
2023/03/21 13:58:51;;;;;;;12.20;10.48;;;;;;;;;;5059596;28;20526;-52
2023/03/21 14:01:24;;;;;;;10.73;9.57;;;;;;;;;;5064034;28;20709;-54
2023/03/21 14:03:58;;;;;;;11.27;9.00;;;;;;;;;;5062010;28;20743;-53
2023/03/21 14:06:30;;;;;;;10.38;9.30;;;;;;;;;;5064753;28;20227;-52
2023/03/21 14:08:57;;;;;;;10.50;9.18;;;;;;;;;;5057845;28;20231;-52
2023/03/21 14:11:23;;;;;;;11.00;9.27;;;;;;;;;;5065266;28;20238;-52
2023/03/21 14:13:53;;;;;;;9.95;8.55;;;;;;;;;;5067458;28;20314;-52
2023/03/21 14:16:20;;;;;;;12.23;9.18;;;;;;;;;;5067524;28;20805;-52
2023/03/21 14:18:50;;;;;;;11.05;8.23;;;;;;;;;;5067276;28;20709;-53
2023/03/21 14:21:20;;;;;;;9.97;8.83;;;;;;;;;;5067852;28;20614;-52
2023/03/21 14:23:46;;;;;;;11.03;8.00;;;;;;;;;;5063554;28;20591;-52
2023/03/21 14:26:13;;;;;;;8.98;8.07;;;;;;;;;;5070209;28;20235;-52